createdAt,value
2022-08-05T00:03:16.915Z,39.9
2022-08-05T00:18:23.485Z,40.4
2022-08-05T00:35:06.994Z,39.9
2022-08-05T00:48:31.570Z,39.9
2022-08-05T01:03:24.938Z,40.3
2022-08-05T01:18:21.335Z,40.3
2022-08-05T01:33:26.790Z,40.1
2022-08-05T01:48:24.586Z,40
2022-08-05T02:03:34.010Z,40
2022-08-05T02:18:35.628Z,39.5
2022-08-05T02:33:40.246Z,40
2022-08-05T02:48:31.019Z,39.3
2022-08-05T03:03:12.103Z,40.3
2022-08-05T03:18:08.069Z,40
2022-08-05T03:33:08.121Z,40.3
2022-08-05T03:48:08.813Z,39.5
2022-08-05T04:03:29.222Z,40.3
2022-08-05T04:18:25.446Z,39.5
2022-08-05T04:33:12.453Z,40.7
2022-08-05T04:48:28.540Z,40.4
2022-08-05T05:03:20.417Z,40.3
2022-08-05T05:18:14.508Z,40.7
2022-08-05T05:33:23.198Z,40.4
2022-08-05T05:48:16.814Z,40.9
2022-08-05T06:04:00.806Z,40.8
2022-08-05T06:18:19.289Z,40.9
2022-08-05T06:34:06.728Z,40.6
2022-08-05T06:49:05.823Z,40.3
2022-08-05T07:03:33.589Z,40.8
2022-08-05T07:18:32.482Z,40.9
2022-08-05T07:33:38.342Z,40.3
2022-08-05T07:49:05.687Z,40.2
2022-08-05T08:03:45.390Z,40.6
2022-08-05T08:18:27.733Z,44.4
2022-08-05T08:33:28.664Z,42.4
2022-08-05T08:50:05.423Z,46.3
2022-08-05T09:03:07.328Z,47.1
2022-08-05T09:18:06.072Z,49
2022-08-05T09:33:06.728Z,48.8
2022-08-05T09:48:07.972Z,50
2022-08-05T10:03:09.424Z,49.4
2022-08-05T10:18:10.556Z,50.5
2022-08-05T10:33:17.176Z,51.9
2022-08-05T10:48:36.216Z,51.8
2022-08-05T11:03:28.948Z,48.3
2022-08-05T11:18:14.186Z,48.5
2022-08-05T11:33:24.169Z,51.7
2022-08-05T11:48:16.251Z,47.1
2022-08-05T12:03:33.587Z,47.2
2022-08-05T12:18:24.254Z,47.2
2022-08-05T12:33:35.982Z,44.2
2022-08-05T12:48:41.981Z,43.6
2022-08-05T13:03:23.659Z,47.4
2022-08-05T13:18:24.767Z,44.2
2022-08-05T13:34:26.316Z,44.5
2022-08-05T13:49:01.280Z,44.1
2022-08-05T14:03:32.197Z,47.4
2022-08-05T14:18:26.942Z,45.1
2022-08-05T14:34:00.415Z,45.4
2022-08-05T14:48:36.092Z,44.6
2022-08-05T15:03:20.708Z,44.7
2022-08-05T15:18:07.654Z,47.5
2022-08-05T15:33:09.023Z,44.8
2022-08-05T15:48:15.956Z,45
2022-08-05T16:03:12.018Z,46.7
2022-08-05T16:18:17.916Z,46.5
2022-08-05T16:33:16.115Z,41.2
2022-08-05T16:48:33.667Z,40.8
2022-08-05T17:03:21.909Z,41.1
2022-08-05T17:18:16.649Z,41
2022-08-05T17:33:17.313Z,40.6
2022-08-05T17:48:18.045Z,40.5
2022-08-05T18:04:04.275Z,40.5
2022-08-05T18:18:19.360Z,40.5
2022-08-05T18:33:25.851Z,40.8
2022-08-05T18:48:34.886Z,40.7
2022-08-05T19:03:56.806Z,40.7
2022-08-05T19:18:26.043Z,40.8
2022-08-05T19:33:37.236Z,40.2
2022-08-05T19:48:26.025Z,39.9
2022-08-05T20:03:26.918Z,40.1
2022-08-05T20:18:36.743Z,40.4
2022-08-05T20:33:33.024Z,40.4
2022-08-05T20:48:30.232Z,40
2022-08-05T21:03:09.617Z,40.5
2022-08-05T21:18:05.901Z,39.7
2022-08-05T21:33:23.609Z,40
2022-08-05T21:48:08.785Z,40.4
2022-08-05T22:03:12.433Z,40
2022-08-05T22:18:12.414Z,40.5
2022-08-05T22:33:17.882Z,40.4
2022-08-05T22:48:10.903Z,40.4
2022-08-05T23:03:14.710Z,40
2022-08-05T23:18:18.162Z,40
2022-08-05T23:34:03.391Z,39.5
2022-08-05T23:48:15.728Z,40.1
